Time;durP1;ratioP1;P1;durP2;ratioP2;P2;SDS_P1;SDS_P2;PMS_P1;PMS_P2;Temp;Humidity;BMP_temperature;BMP_pressure;BME280_temperature;BME280_humidity;BME280_pressure;Samples;Min_cycle;Max_cycle;Signal;HPM_P1;HPM_P2
2021/12/19 00:12:17;;;;;;;;;;;;;;;;;;;;;
2021/12/19 00:15:11;;;;;;;;;;;;;;;;;;;;;
2021/12/19 00:18:19;;;;;;;15.60;3.42;;;;;;;12.02;56.02;102235.50;5070928;27;111338;-77
2021/12/19 00:21:25;;;;;;;;;;;;;;;;;;;;;
2021/12/19 00:23:55;;;;;;;15.10;2.80;;;;;;;11.59;56.92;102235.34;5028787;27;127331;-79
2021/12/19 00:26:25;;;;;;;16.83;3.20;;;;;;;11.95;56.05;102218.84;5031013;27;96907;-77
2021/12/19 00:29:10;;;;;;;12.32;2.47;;;;;;;11.15;57.57;102223.69;5034984;27;96840;-78
2021/12/19 00:32:13;;;;;;;14.25;3.10;;;;;;;11.28;58.28;102213.78;5083353;27;98957;-78
2021/12/19 00:34:51;;;;;;;;;;;;;;;;;;;;;
2021/12/19 00:37:20;;;;;;;14.77;3.30;;;;;;;11.31;58.61;102219.03;5078518;27;114551;-79
2021/12/19 00:39:57;;;;;;;;;;;;;;;;;;;;;
2021/12/19 00:42:29;;;;;;;10.60;2.65;;;;;;;11.21;57.79;102208.59;5076262;27;126803;-78
2021/12/19 00:45:00;;;;;;;15.57;3.20;;;;;;;11.23;58.55;102207.66;5087062;27;98989;-77
2021/12/19 00:47:32;;;;;;;13.10;3.45;;;;;;;11.27;57.65;102211.16;5080275;27;97020;-79
2021/12/19 00:50:05;;;;;;;10.32;2.83;;;;;;;11.77;56.81;102202.41;5083282;27;97076;-80
2021/12/19 00:52:47;;;;;;;;;;;;;;;;;;;;;
2021/12/19 00:55:18;;;;;;;18.25;3.65;;;;;;;11.38;57.84;102198.63;5071334;27;127586;-78
2021/12/19 00:57:53;;;;;;;11.10;3.85;;;;;;;11.26;57.16;102198.81;5079869;27;96744;-79
2021/12/19 01:00:37;;;;;;;11.65;3.80;;;;;;;11.28;57.24;102181.16;5068933;27;97260;-78
2021/12/19 01:07:03;;;;;;;;;;;;;;;;;;;;;
2021/12/19 01:10:09;;;;;;;;;;;;;;;;;;;;;
2021/12/19 01:32:45;;;;;;;;;;;;;;;;;;;;;
2021/12/19 02:06:16;;;;;;;;;;;;;;;;;;;;;
2021/12/19 02:08:48;;;;;;;9.35;3.72;;;;;;;11.48;56.26;102089.94;4999987;27;127123;-79
2021/12/19 02:11:28;;;;;;;13.98;4.03;;;;;;;11.27;56.78;102074.44;5054288;27;96863;-79
2021/12/19 02:14:22;;;;;;;14.43;3.83;;;;;;;11.54;55.93;102094.25;5044263;27;96758;-77
2021/12/19 02:16:59;;;;;;;8.32;3.78;;;;;;;11.67;56.21;102084.31;5052214;27;99352;-77
2021/12/19 02:19:29;;;;;;;;;;;;;;;11.67;55.40;102105.50;5072095;27;98912;-79
2021/12/19 02:22:02;;;;;;;8.38;2.67;;;;;;;11.25;56.32;102101.81;5059419;27;97124;-78
2021/12/19 02:24:30;;;;;;;8.98;3.10;;;;;;;10.77;57.32;102091.97;5055528;27;96797;-78
2021/12/19 02:26:59;;;;;;;7.85;2.50;;;;;;;10.75;59.04;102085.00;5039611;27;97763;-78
2021/12/19 02:29:29;;;;;;;11.02;2.50;;;;;;;10.99;58.32;102115.47;5046925;27;98106;-78
2021/12/19 02:32:02;;;;;;;10.07;3.03;;;;;;;10.86;58.39;102117.41;5063387;27;96959;-78
2021/12/19 02:34:37;;;;;;;10.73;2.70;;;;;;;11.19;57.62;102118.66;5053896;27;96952;-78
2021/12/19 02:37:46;;;;;;;9.60;2.30;;;;;;;11.39;56.81;102095.38;5049687;27;99256;-78
2021/12/19 02:48:09;;;;;;;8.07;2.47;;;;;;;11.12;57.94;102101.16;5059447;27;98526;-77
2021/12/19 02:49:01;;;;;;;7.70;1.90;;;;;;;11.02;57.96;102078.41;5043896;27;96945;-79
2021/12/19 02:51:34;;;;;;;7.43;1.80;;;;;;;10.69;58.99;102080.66;5043464;27;99942;-78
2021/12/19 02:54:03;;;;;;;5.45;1.88;;;;;;;11.10;58.96;102076.47;5061670;27;97125;-78
2021/12/19 02:56:33;;;;;;;8.55;2.15;;;;;;;10.99;58.19;102086.38;5048468;27;96879;-79
2021/12/19 02:59:03;;;;;;;5.05;1.85;;;;;;;11.64;56.00;102087.00;5049706;27;99680;-78
2021/12/19 03:01:32;;;;;;;5.97;2.30;;;;;;;11.17;58.01;102080.78;5052122;27;100517;-78
2021/12/19 03:04:13;;;;;;;;;;;;;;;;;;;;;
2021/12/19 03:07:07;;;;;;;;;;;;;;;;;;;;;
2021/12/19 03:09:55;;;;;;;10.10;1.92;;;;;;;11.30;57.84;102044.38;5038364;27;127766;-78
2021/12/19 03:12:36;;;;;;;5.45;1.92;;;;;;;10.73;59.49;102034.78;5053800;27;99301;-78
2021/12/19 03:17:58;;;;;;;4.90;1.60;;;;;;;11.31;57.46;102054.94;5058309;27;96919;-79
2021/12/19 03:20:27;;;;;;;5.18;2.08;;;;;;;10.78;59.19;102034.69;5061535;27;98963;-79
2021/12/19 03:22:55;;;;;;;6.22;1.67;;;;;;;10.94;59.36;102040.63;5058471;27;99095;-78
2021/12/19 03:25:29;;;;;;;7.43;1.95;;;;;;;11.34;57.93;102028.44;5056251;27;96803;-78
2021/12/19 03:30:44;;;;;;;5.53;1.73;;;;;;;10.69;58.54;102038.38;5049359;27;98540;-78
2021/12/19 03:33:35;;;;;;;;;;;;;;;;;;;;;
2021/12/19 03:36:03;;;;;;;5.05;1.55;;;;;;;10.85;58.81;102022.25;5045749;27;113270;-79
2021/12/19 03:38:44;;;;;;;4.55;2.15;;;;;;;11.37;56.32;102028.38;5049218;27;96874;-77
2021/12/19 03:41:33;;;;;;;7.63;1.85;;;;;;;10.88;58.86;102040.72;5063958;27;98251;-77
2021/12/19 03:44:02;;;;;;;4.45;1.85;;;;;;;10.81;58.96;102033.78;5048826;27;98699;-80
2021/12/19 03:46:35;;;;;;;7.38;1.70;;;;;;;10.16;60.90;102023.25;5057042;27;96995;-79
2021/12/19 03:49:10;;;;;;;5.32;1.70;;;;;;;10.96;58.62;102036.19;5049691;27;96986;-77
2021/12/19 03:51:49;;;;;;;4.38;2.05;;;;;;;11.26;57.22;102033.00;5042936;27;98895;-79
2021/12/19 03:54:18;;;;;;;7.68;1.67;;;;;;;11.15;57.61;102034.97;5043068;27;98863;-78
2021/12/19 03:57:05;;;;;;;7.22;2.05;;;;;;;11.20;57.32;102014.59;5061306;27;97612;-81
2021/12/19 03:59:48;;;;;;;;;;;;;;;;;;;;;
2021/12/19 04:02:36;;;;;;;4.55;1.95;;;;;;;11.43;56.25;102015.03;5037250;27;128604;-79
2021/12/19 04:05:19;;;;;;;6.60;2.10;;;;;;;11.52;56.82;102020.16;4968922;28;103215;-79
2021/12/19 04:07:46;;;;;;;5.80;2.05;;;;;;;11.19;56.53;102010.19;5043839;27;96755;-79
2021/12/19 04:10:14;;;;;;;8.20;1.83;;;;;;;11.71;56.38;102010.06;5045319;27;96844;-78
2021/12/19 04:12:45;;;;;;;10.73;2.15;;;;;;;11.66;55.55;102026.97;5058787;27;98935;-78
2021/12/19 04:15:16;;;;;;;3.40;2.05;;;;;;;11.02;57.73;102013.16;5051586;27;98885;-78
2021/12/19 04:17:48;;;;;;;5.80;2.20;;;;;;;11.40;56.69;102008.94;5062559;27;96881;-77
2021/12/19 04:20:18;;;;;;;6.38;2.17;;;;;;;11.03;57.18;102012.22;5061522;27;96954;-78
2021/12/19 04:22:51;;;;;;;5.28;2.42;;;;;;;11.57;56.24;102010.34;5051207;27;97638;-79
2021/12/19 04:25:26;;;;;;;5.35;2.08;;;;;;;11.88;55.58;102015.06;5067214;27;98631;-77
2021/12/19 04:28:07;;;;;;;7.15;2.42;;;;;;;11.16;57.31;102013.75;5069092;27;96681;-78
2021/12/19 04:31:02;;;;;;;7.28;2.30;;;;;;;11.14;56.19;102020.00;5053253;27;96800;-78
2021/12/19 04:33:36;;;;;;;6.43;2.83;;;;;;;11.65;56.36;102027.84;5049712;27;97985;-78
2021/12/19 04:36:17;;;;;;;10.75;3.25;;;;;;;12.03;54.94;102027.97;5054799;27;99084;-78
2021/12/19 04:44:42;;;;;;;8.15;2.90;;;;;;;11.82;54.79;102010.75;5057096;27;98374;-78
2021/12/19 04:53:11;;;;;;;7.68;3.97;;;;;;;11.75;55.32;102009.13;5067921;27;96980;-79
2021/12/19 05:01:32;;;;;;;9.68;3.78;;;;;;;11.28;56.49;101996.81;5048661;27;96839;-77
2021/12/19 05:04:11;;;;;;;7.90;3.75;;;;;;;11.46;56.64;101996.44;5059834;27;96915;-80
2021/12/19 05:15:24;;;;;;;16.65;3.92;;;;;;;11.61;55.98;102007.66;5061151;27;97426;-79
2021/12/19 05:18:06;;;;;;;11.10;3.67;;;;;;;12.06;53.97;102000.56;5056006;27;98849;-80
2021/12/19 05:20:57;;;;;;;7.85;3.40;;;;;;;12.03;54.19;101988.22;5054025;27;99302;-77
2021/12/19 05:23:34;;;;;;;10.60;3.28;;;;;;;11.83;54.67;101979.84;5055668;27;96921;-78
2021/12/19 05:26:02;;;;;;;9.85;3.13;;;;;;;11.33;54.91;101973.78;5054031;27;96788;-78
2021/12/19 05:28:31;;;;;;;12.18;3.50;;;;;;;11.54;56.58;101978.66;5054482;27;98942;-79
2021/12/19 05:31:09;;;;;;;;;;;;;;;;;;;;;
2021/12/19 05:33:48;;;;;;;14.60;4.55;;;;;;;12.09;54.17;101988.09;5054526;27;114611;-79
2021/12/19 05:45:48;;;;;;;10.15;3.78;;;;;;;11.80;54.53;101990.50;5062665;27;96683;-77
2021/12/19 05:48:43;;;;;;;8.98;2.78;;;;;;;11.64;54.99;101989.03;5056369;27;97294;-79
2021/12/19 05:51:51;;;;;;;;;;;;;;;;;;;;;
2021/12/19 05:55:07;;;;;;;;;;;;;;;;;;;;;
2021/12/19 05:58:07;;;;;;;;;;;;;;;;;;;;;
2021/12/19 06:00:50;;;;;;;;;;;;;;;;;;;;;
2021/12/19 06:04:00;;;;;;;10.82;3.17;;;;;;;11.88;55.44;101975.34;5065213;27;127486;-79
2021/12/19 06:06:36;;;;;;;12.93;3.42;;;;;;;11.94;54.72;101973.44;5072854;27;100718;-79
2021/12/19 06:09:05;;;;;;;14.27;3.40;;;;;;;11.54;56.79;101969.84;5042122;27;96555;-79
2021/12/19 06:11:42;;;;;;;;;;;;;;;;;;;;;
2021/12/19 06:14:32;;;;;;;10.63;2.78;;;;;;;11.28;56.16;101970.34;5039756;27;128473;-79
2021/12/19 06:17:10;;;;;;;8.00;3.00;;;;;;;11.67;56.10;101970.47;5033642;27;99019;-78
2021/12/19 06:20:14;;;;;;;;;;;;;;;;;;;;;
2021/12/19 06:23:07;;;;;;;;;;;;;;;;;;;;;
2021/12/19 06:25:45;;;;;;;;;;;;;;;;;;;;;
2021/12/19 06:28:30;;;;;;;;;;;;;;;;;;;;;
2021/12/19 06:31:11;;;;;;;;;;;;;;;;;;;;;
2021/12/19 06:33:49;;;;;;;12.65;2.75;;;;;;;11.51;54.66;101944.28;5053385;27;112318;-77
2021/12/19 06:36:36;;;;;;;;;;;;;;;;;;;;;
2021/12/19 06:39:38;;;;;;;14.15;3.35;;;;;;;11.88;54.16;101940.91;5059664;27;128750;-78
2021/12/19 06:42:27;;;;;;;;;;;;;;;;;;;;;
2021/12/19 06:45:25;;;;;;;;;;;;;;;;;;;;;
2021/12/19 06:48:02;;;;;;;;;;;;;;;11.68;55.03;101937.78;5049090;27;128396;-77
2021/12/19 06:50:29;;;;;;;3.65;1.73;;;;;;;11.23;56.12;101913.97;5060922;27;97863;-80
2021/12/19 06:52:55;;;;;;;8.05;1.90;;;;;;;11.01;56.93;101916.19;5068258;27;96586;-76
2021/12/19 06:55:22;;;;;;;4.82;1.80;;;;;;;11.25;55.59;101937.75;5038621;27;98355;-78
2021/12/19 06:57:49;;;;;;;7.40;2.08;;;;;;;11.00;56.65;101921.50;5049570;27;98966;-78
2021/12/19 07:00:18;;;;;;;7.82;1.60;;;;;;;10.74;56.05;101928.13;5058180;27;98937;-79
2021/12/19 07:02:44;;;;;;;6.38;1.50;;;;;;;11.37;55.39;101933.09;5059032;27;96860;-78
2021/12/19 07:05:12;;;;;;;7.40;1.73;;;;;;;11.37;55.03;101926.94;5060353;27;98503;-79
2021/12/19 07:07:39;;;;;;;6.28;1.60;;;;;;;11.38;55.38;101924.25;5060642;27;99545;-77
2021/12/19 07:10:07;;;;;;;5.50;1.58;;;;;;;11.37;55.44;101925.16;5049306;27;98974;-78
2021/12/19 07:12:34;;;;;;;9.75;1.80;;;;;;;11.01;56.25;101929.41;5056204;27;96919;-78
2021/12/19 07:15:01;;;;;;;10.93;2.08;;;;;;;11.57;54.79;101930.06;5065742;27;96776;-78
2021/12/19 07:17:27;;;;;;;10.45;2.05;;;;;;;11.27;54.84;101917.44;5047118;27;98179;-77
2021/12/19 07:19:54;;;;;;;6.80;2.50;;;;;;;11.50;54.48;101931.94;5062859;27;98954;-78
2021/12/19 07:22:21;;;;;;;9.40;2.35;;;;;;;11.38;54.66;101920.75;5052495;27;98362;-77
2021/12/19 07:24:48;;;;;;;9.98;2.30;;;;;;;11.25;56.71;101914.81;5062577;27;96841;-77
2021/12/19 07:27:15;;;;;;;10.95;2.75;;;;;;;11.31;56.57;101914.69;5062385;27;98108;-79
2021/12/19 07:29:42;;;;;;;8.18;2.20;;;;;;;11.21;56.72;101915.81;5057904;27;98935;-78
2021/12/19 07:32:08;;;;;;;7.38;2.88;;;;;;;11.65;55.79;101908.72;5060135;27;96724;-78
2021/12/19 07:34:37;;;;;;;7.50;1.80;;;;;;;11.71;55.22;101895.34;5057144;27;96850;-78
2021/12/19 07:37:04;;;;;;;6.32;1.75;;;;;;;11.70;55.31;101905.06;5063076;27;98408;-77
2021/12/19 07:39:41;;;;;;;7.10;2.30;;;;;;;11.47;56.58;101892.31;5055155;27;98840;-79
2021/12/19 07:42:09;;;;;;;5.10;1.60;;;;;;;11.47;55.46;101894.09;5060931;27;96988;-78
2021/12/19 07:44:38;;;;;;;5.88;1.65;;;;;;;11.70;55.76;101897.13;5059725;27;96889;-80
2021/12/19 07:47:06;;;;;;;5.00;1.50;;;;;;;11.51;56.11;101899.28;5065613;27;99049;-80
2021/12/19 07:49:32;;;;;;;3.88;1.30;;;;;;;11.44;57.34;101892.38;5056528;27;99735;-78
2021/12/19 07:51:59;;;;;;;5.18;1.00;;;;;;;10.75;57.93;101892.00;5065628;27;96886;-79
2021/12/19 07:54:26;;;;;;;3.90;1.05;;;;;;;10.87;59.15;101883.81;5049099;27;96990;-77
2021/12/19 07:56:53;;;;;;;2.33;0.60;;;;;;;10.87;58.63;101888.25;5049076;27;99170;-79
2021/12/19 07:59:23;;;;;;;2.03;0.85;;;;;;;10.95;58.70;101881.91;5057650;27;99226;-79
2021/12/19 08:01:50;;;;;;;1.02;0.68;;;;;;;11.17;58.58;101891.16;5064484;27;97132;-78
2021/12/19 08:04:16;;;;;;;2.30;0.70;;;;;;;11.30;57.00;101885.63;5060683;27;97229;-78
2021/12/19 08:06:43;;;;;;;1.13;0.82;;;;;;;11.41;58.20;101881.88;5060161;27;98870;-77
2021/12/19 08:09:20;;;;;;;3.05;0.70;;;;;;;11.00;57.14;101881.81;5056804;27;99609;-78
2021/12/19 08:11:46;;;;;;;3.47;0.80;;;;;;;10.76;59.24;101867.31;5051633;27;97689;-78
2021/12/19 08:14:16;;;;;;;3.08;0.95;;;;;;;10.97;59.57;101869.50;5073546;27;96779;-78
2021/12/19 08:16:44;;;;;;;4.07;0.80;;;;;;;11.09;58.49;101868.44;5052860;27;99376;-79
2021/12/19 08:19:12;;;;;;;3.70;0.75;;;;;;;11.17;58.83;101864.72;5068676;27;100794;-78
2021/12/19 08:21:38;;;;;;;3.65;0.90;;;;;;;11.61;58.02;101862.91;5044139;27;97042;-79
2021/12/19 08:24:10;;;;;;;2.08;1.20;;;;;;;11.33;58.52;101861.75;5072754;27;97393;-79
2021/12/19 08:26:37;;;;;;;4.63;1.30;;;;;;;11.68;57.86;101850.41;5057830;27;100847;-80
2021/12/19 08:29:04;;;;;;;4.38;1.05;;;;;;;11.36;57.36;101851.09;5073199;27;99461;-77
2021/12/19 08:31:32;;;;;;;4.70;1.48;;;;;;;11.22;58.65;101845.25;5060266;27;96789;-79
2021/12/19 08:33:59;;;;;;;3.83;1.38;;;;;;;10.99;59.29;101840.41;5069288;27;96884;-79
2021/12/19 08:36:30;;;;;;;4.05;0.90;;;;;;;11.07;60.24;101839.34;5049924;27;97610;-78
2021/12/19 08:39:14;;;;;;;;;;;;;;;;;;;;;
2021/12/19 08:42:11;;;;;;;;;;;;;;;;;;;;;
2021/12/19 08:45:11;;;;;;;;;;;;;;;;;;;;;
2021/12/19 08:47:47;;;;;;;4.22;0.90;;;;;;;10.90;62.11;101846.72;5061463;27;128283;-78
2021/12/19 08:50:22;;;;;;;;;;;;;;;11.03;62.28;101839.44;5062825;27;102187;-78
2021/12/19 08:52:57;;;;;;;3.45;0.70;;;;;;;10.98;61.40;101836.88;5068587;27;96655;-79
2021/12/19 08:55:37;;;;;;;;;;;;;;;;;;;;;
2021/12/19 08:58:30;;;;;;;;;;;;;;;;;;;;;
2021/12/19 09:01:14;;;;;;;1.17;0.60;;;;;;;10.93;60.13;101835.25;5057789;27;128516;-78
2021/12/19 09:04:10;;;;;;;2.22;0.50;;;;;;;10.89;60.92;101838.84;5057109;27;96715;-78
2021/12/19 09:06:59;;;;;;;;;;;;;;;;;;;;;
2021/12/19 09:09:51;;;;;;;3.78;0.90;;;;;;;10.74;63.48;101832.09;5064804;27;125877;-77
2021/12/19 09:12:29;;;;;;;;;;;;;;;;;;;;;
2021/12/19 09:15:00;;;;;;;2.85;0.73;;;;;;;11.38;60.57;101818.41;5072753;27;114357;-79
2021/12/19 09:17:56;;;;;;;;;;;;;;;;;;;;;
2021/12/19 09:26:14;;;;;;;5.72;1.00;;;;;;;11.27;60.89;101803.69;5055864;27;96902;-75
2021/12/19 09:28:41;;;;;;;4.68;1.00;;;;;;;11.68;60.10;101800.97;5058512;27;96805;-74
2021/12/19 09:31:07;;;;;;;6.18;1.10;;;;;;;11.04;60.94;101806.78;5056583;27;99380;-74
2021/12/19 09:33:34;;;;;;;6.35;1.20;;;;;;;11.02;61.17;101803.31;5061386;27;97007;-74
2021/12/19 09:36:01;;;;;;;3.22;1.02;;;;;;;10.85;61.69;101794.84;5052401;27;96745;-76
2021/12/19 09:38:28;;;;;;;3.63;1.23;;;;;;;10.94;61.72;101805.25;5051515;27;96856;-74
2021/12/19 09:41:00;;;;;;;4.57;1.30;;;;;;;11.29;61.22;101812.47;5054777;27;99024;-75
2021/12/19 09:43:42;;;;;;;5.25;1.40;;;;;;;11.01;62.29;101805.09;5049171;27;98892;-75
2021/12/19 09:46:11;;;;;;;6.15;1.05;;;;;;;10.99;61.60;101800.72;5052923;27;96962;-75
2021/12/19 09:48:39;;;;;;;2.85;1.10;;;;;;;11.57;60.25;101793.28;5045417;27;96654;-75
2021/12/19 09:51:05;;;;;;;1.52;0.93;;;;;;;11.18;60.92;101791.50;5052974;27;99188;-74
2021/12/19 09:53:42;;;;;;;6.97;0.90;;;;;;;11.43;61.19;101792.72;5046632;27;99374;-74
2021/12/19 09:56:09;;;;;;;3.25;0.93;;;;;;;10.81;61.40;101783.47;5049421;27;96664;-73
2021/12/19 09:58:37;;;;;;;3.95;0.88;;;;;;;11.16;61.40;101785.38;5055745;27;97469;-75
2021/12/19 10:01:07;;;;;;;7.20;1.13;;;;;;;11.48;60.40;101782.91;5052443;27;97165;-74
2021/12/19 10:03:35;;;;;;;2.58;1.10;;;;;;;11.65;59.66;101763.09;5051667;27;98244;-74
2021/12/19 10:06:16;;;;;;;4.93;1.40;;;;;;;11.28;61.48;101765.72;5050558;27;96905;-74
2021/12/19 10:08:46;;;;;;;3.08;0.80;;;;;;;11.29;60.13;101765.69;5048824;27;97559;-74
2021/12/19 10:11:30;;;;;;;3.38;0.73;;;;;;;11.03;61.65;101757.44;5055370;27;98932;-74
2021/12/19 10:13:58;;;;;;;3.25;1.00;;;;;;;11.49;60.94;101750.22;5043544;27;98042;-74
2021/12/19 10:16:26;;;;;;;7.72;1.50;;;;;;;11.62;61.03;101744.66;5056058;27;96666;-74
2021/12/19 10:18:54;;;;;;;3.30;1.33;;;;;;;11.83;59.85;101737.06;5056923;27;96789;-74
2021/12/19 10:21:22;;;;;;;6.43;1.58;;;;;;;11.73;60.05;101748.78;5057470;27;99549;-75
2021/12/19 10:23:49;;;;;;;4.97;0.80;;;;;;;11.70;60.12;101750.63;5060801;27;98238;-75
2021/12/19 10:26:16;;;;;;;4.43;0.70;;;;;;;11.50;59.42;101738.72;5065456;27;96657;-74
2021/12/19 10:28:50;;;;;;;4.40;1.23;;;;;;;11.64;60.10;101737.53;5058066;27;96748;-73
2021/12/19 10:31:18;;;;;;;3.00;1.23;;;;;;;11.89;58.56;101738.69;5063093;27;99393;-74
2021/12/19 10:33:44;;;;;;;3.40;1.45;;;;;;;12.09;58.36;101733.75;5044296;27;99199;-73
2021/12/19 10:36:10;;;;;;;6.57;1.75;;;;;;;11.77;59.40;101731.06;5046173;27;96678;-73
2021/12/19 10:38:42;;;;;;;8.00;1.60;;;;;;;11.88;58.96;101721.09;5049611;27;97620;-73
2021/12/19 10:41:12;;;;;;;2.80;1.15;;;;;;;11.99;59.29;101719.03;5051655;27;99478;-73
2021/12/19 10:43:45;;;;;;;6.93;2.00;;;;;;;12.19;58.26;101724.69;5059868;27;99226;-75
2021/12/19 10:46:11;;;;;;;7.60;1.60;;;;;;;12.35;57.64;101728.63;5060011;27;96574;-74
2021/12/19 10:48:41;;;;;;;6.82;2.00;;;;;;;12.33;58.38;101719.88;5055782;27;97321;-73
2021/12/19 10:51:10;;;;;;;6.13;1.10;;;;;;;11.08;61.41;101729.13;5051973;27;99175;-74
2021/12/19 10:53:39;;;;;;;5.28;0.98;;;;;;;11.68;60.35;101721.56;5046463;27;99481;-74
2021/12/19 10:56:10;;;;;;;5.63;1.40;;;;;;;12.04;59.52;101725.06;5053188;27;96694;-73
2021/12/19 10:58:42;;;;;;;2.70;1.38;;;;;;;11.90;59.78;101721.91;5048152;27;97759;-75
2021/12/19 11:01:14;;;;;;;4.28;1.48;;;;;;;11.11;59.92;101718.47;5050370;27;99491;-76
2021/12/19 11:03:51;;;;;;;6.55;1.00;;;;;;;11.25;60.62;101716.41;5040960;27;97820;-75
2021/12/19 11:06:37;;;;;;;13.98;1.75;;;;;;;11.40;60.55;101716.03;5039310;27;97512;-74
2021/12/19 11:09:11;;;;;;;4.77;1.77;;;;;;;11.37;60.91;101720.53;5057302;27;96698;-75
2021/12/19 11:11:43;;;;;;;8.43;1.35;;;;;;;11.61;60.74;101714.66;5048332;27;99541;-75
2021/12/19 11:14:13;;;;;;;6.07;1.30;;;;;;;11.43;61.08;101708.00;5049403;27;97734;-74
2021/12/19 11:16:40;;;;;;;9.95;1.40;;;;;;;11.38;61.01;101696.69;5051433;27;96753;-74
2021/12/19 11:19:08;;;;;;;5.05;1.08;;;;;;;11.06;60.65;101680.69;5051192;27;97647;-71
2021/12/19 11:21:36;;;;;;;6.63;1.48;;;;;;;11.22;62.53;101675.94;5047753;27;99077;-74
2021/12/19 11:24:05;;;;;;;4.13;0.90;;;;;;;11.29;61.35;101662.47;5044028;27;99309;-74
2021/12/19 11:26:32;;;;;;;4.38;1.30;;;;;;;11.49;60.55;101660.22;5037743;27;96821;-74
2021/12/19 11:29:00;;;;;;;6.25;1.52;;;;;;;11.34;61.56;101650.03;5050544;27;97588;-74
2021/12/19 11:31:30;;;;;;;9.82;1.40;;;;;;;11.61;60.79;101650.25;5042726;27;99429;-75
2021/12/19 11:34:08;;;;;;;6.70;1.60;;;;;;;11.56;61.40;101642.41;5045580;27;97638;-75
2021/12/19 11:36:41;;;;;;;8.10;1.20;;;;;;;10.80;61.97;101638.97;5041859;27;96844;-74
2021/12/19 11:39:08;;;;;;;7.78;1.20;;;;;;;10.91;61.65;101629.00;5047542;27;97154;-74
2021/12/19 11:41:35;;;;;;;5.47;1.50;;;;;;;11.66;61.43;101627.19;5047699;27;99689;-74
2021/12/19 11:44:07;;;;;;;8.43;1.15;;;;;;;11.36;61.88;101624.38;5051357;27;101468;-73
2021/12/19 11:46:49;;;;;;;5.57;1.52;;;;;;;11.66;60.10;101622.75;5042976;27;96667;-75
2021/12/19 11:49:21;;;;;;;4.65;1.75;;;;;;;11.45;61.04;101625.94;5052242;27;98074;-74
2021/12/19 11:51:49;;;;;;;7.47;1.17;;;;;;;11.68;60.78;101622.72;5044282;27;98923;-74
2021/12/19 11:54:18;;;;;;;6.22;1.63;;;;;;;10.85;61.45;101615.06;5048690;27;98116;-74
2021/12/19 11:57:06;;;;;;;7.13;1.25;;;;;;;11.07;62.36;101611.00;5054518;27;99087;-75
2021/12/19 11:59:33;;;;;;;6.25;1.55;;;;;;;11.58;61.04;101607.06;5045411;27;96879;-75
2021/12/19 12:02:21;;;;;;;5.28;1.30;;;;;;;11.11;61.70;101604.72;5047707;27;99822;-74
2021/12/19 12:05:26;;;;;;;6.57;1.35;;;;;;;10.67;62.25;101605.78;5045819;27;99627;-74
2021/12/19 12:08:16;;;;;;;4.80;1.30;;;;;;;10.99;62.94;101597.97;5045333;27;96820;-74
2021/12/19 12:11:10;;;;;;;6.63;1.48;;;;;;;11.02;62.64;101597.03;5048015;27;97028;-74
2021/12/19 12:13:38;;;;;;;6.25;1.40;;;;;;;11.13;61.85;101585.28;5052353;27;99306;-75
2021/12/19 12:16:44;;;;;;;5.50;1.20;;;;;;;11.10;63.41;101584.47;5055372;27;98816;-73
2021/12/19 12:19:15;;;;;;;6.00;1.30;;;;;;;11.33;62.68;101576.84;5054639;27;96848;-74
2021/12/19 12:21:47;;;;;;;6.07;1.38;;;;;;;10.82;64.05;101578.13;5062005;27;96779;-74
2021/12/19 12:24:19;;;;;;;4.55;1.13;;;;;;;10.95;63.26;101572.50;5044469;27;98973;-75
2021/12/19 12:26:57;;;;;;;7.18;1.23;;;;;;;11.29;62.98;101564.59;5047490;27;99189;-74
2021/12/19 12:29:24;;;;;;;4.25;1.30;;;;;;;11.63;62.62;101566.34;5051656;27;97045;-75
2021/12/19 12:31:52;;;;;;;4.85;1.48;;;;;;;11.29;61.19;101564.59;5050435;27;96804;-74
2021/12/19 12:34:19;;;;;;;6.90;1.58;;;;;;;11.17;63.19;101557.84;5049599;27;99202;-74
2021/12/19 12:36:47;;;;;;;5.65;1.35;;;;;;;10.63;64.97;101546.81;5051756;27;101389;-75
2021/12/19 12:39:18;;;;;;;10.27;1.60;;;;;;;10.89;64.23;101543.56;5049649;27;96942;-73
2021/12/19 12:41:58;;;;;;;7.05;1.45;;;;;;;10.65;65.28;101545.00;5046957;27;97247;-74
2021/12/19 12:44:25;;;;;;;7.70;1.17;;;;;;;10.61;65.03;101540.72;5045715;27;97656;-75
2021/12/19 12:46:52;;;;;;;7.25;1.27;;;;;;;11.13;64.90;101540.31;5044265;27;99576;-75
2021/12/19 12:49:20;;;;;;;5.47;1.15;;;;;;;10.78;65.06;101519.16;5041976;27;97163;-74
2021/12/19 12:51:48;;;;;;;10.90;1.40;;;;;;;10.94;64.79;101527.59;5046086;27;96823;-74
2021/12/19 12:54:18;;;;;;;5.70;1.23;;;;;;;11.27;62.88;101520.56;5041735;27;102219;-74
2021/12/19 12:56:49;;;;;;;5.00;1.40;;;;;;;11.12;63.60;101527.13;5047569;27;99345;-74
2021/12/19 12:59:18;;;;;;;8.38;1.67;;;;;;;11.00;64.35;101530.09;5040425;27;96686;-74
2021/12/19 13:01:48;;;;;;;6.45;1.60;;;;;;;11.13;63.43;101527.09;5049599;27;96882;-74
2021/12/19 13:04:17;;;;;;;4.95;0.90;;;;;;;11.41;63.14;101526.38;5040734;27;98228;-74
2021/12/19 13:06:51;;;;;;;4.43;1.38;;;;;;;11.22;63.12;101518.06;5044007;27;99313;-73
2021/12/19 13:09:20;;;;;;;12.68;5.70;;;;;;;11.51;62.71;101518.16;5050336;27;96767;-74
2021/12/19 13:11:51;;;;;;;6.78;1.38;;;;;;;11.71;62.80;101519.38;5062694;27;96766;-74
2021/12/19 13:14:21;;;;;;;3.85;1.13;;;;;;;11.71;62.62;101504.34;5057442;27;98034;-74
2021/12/19 13:16:51;;;;;;;6.13;1.33;;;;;;;11.34;62.91;101509.81;5051840;27;101450;-75
2021/12/19 13:19:48;;;;;;;6.55;1.17;;;;;;;11.38;63.39;101511.44;5054437;27;96996;-75
2021/12/19 13:22:18;;;;;;;3.90;0.93;;;;;;;11.51;61.97;101496.97;4995909;28;96700;-74
2021/12/19 13:24:46;;;;;;;4.63;1.00;;;;;;;11.64;62.17;101496.63;5038447;27;98999;-75
2021/12/19 13:27:16;;;;;;;5.45;0.80;;;;;;;10.86;64.73;101500.47;5053970;27;100738;-74
2021/12/19 13:29:57;;;;;;;5.80;1.13;;;;;;;10.87;64.82;101496.91;5049608;27;96755;-73
2021/12/19 13:32:27;;;;;;;12.32;1.45;;;;;;;11.53;63.69;101502.22;5055970;27;96978;-74
2021/12/19 13:34:54;;;;;;;5.93;1.10;;;;;;;11.27;63.88;101496.78;5045305;27;99122;-72
2021/12/19 13:37:22;;;;;;;7.80;1.88;;;;;;;10.88;64.61;101506.59;5050673;27;98819;-74
2021/12/19 13:39:59;;;;;;;4.22;1.30;;;;;;;11.08;64.00;101502.53;5051069;27;96802;-74
2021/12/19 13:42:43;;;;;;;4.85;1.50;;;;;;;11.33;63.97;101497.47;5049549;27;99352;-73
2021/12/19 13:45:29;;;;;;;4.57;1.15;;;;;;;10.72;66.12;101503.44;5046419;27;99733;-73
2021/12/19 13:47:56;;;;;;;3.85;1.90;;;;;;;11.24;65.44;101503.00;5046156;27;97597;-75
2021/12/19 13:50:23;;;;;;;6.63;1.50;;;;;;;11.56;63.17;101484.47;5054166;27;96729;-73
2021/12/19 13:52:50;;;;;;;3.80;0.90;;;;;;;11.53;63.85;101468.69;5051087;27;98656;-73
2021/12/19 13:55:17;;;;;;;4.45;1.02;;;;;;;11.64;63.77;101480.75;5052317;27;99399;-72
2021/12/19 13:57:46;;;;;;;4.28;1.13;;;;;;;11.37;64.00;101488.53;5052856;27;98747;-75
2021/12/19 14:00:28;;;;;;;4.38;1.13;;;;;;;11.89;63.10;101477.38;5067353;27;96458;-74
2021/12/19 14:02:55;;;;;;;6.18;1.52;;;;;;;11.91;62.61;101480.84;5060279;27;96430;-74
2021/12/19 14:05:42;;;;;;;3.15;0.93;;;;;;;11.68;62.64;101483.28;5066185;27;100343;-74
2021/12/19 14:08:23;;;;;;;3.20;1.15;;;;;;;11.88;62.21;101480.94;5064715;27;98509;-73
2021/12/19 14:11:20;;;;;;;5.97;0.85;;;;;;;11.94;60.97;101487.84;5073896;27;96586;-74
2021/12/19 14:14:03;;;;;;;9.10;1.48;;;;;;;11.43;63.11;101477.78;4996733;28;96961;-74
2021/12/19 14:16:39;;;;;;;3.33;0.88;;;;;;;11.25;62.85;101474.75;5044993;27;98196;-74
2021/12/19 14:19:21;;;;;;;5.60;0.85;;;;;;;11.35;64.25;101468.34;5056807;27;99122;-74
2021/12/19 14:21:48;;;;;;;6.80;1.20;;;;;;;11.70;62.62;101473.50;5044796;27;96813;-73
2021/12/19 14:24:29;;;;;;;5.10;1.60;;;;;;;12.18;61.44;101487.13;5053108;27;96755;-74
2021/12/19 14:27:16;;;;;;;4.85;1.45;;;;;;;11.70;62.64;101485.84;5053854;27;97778;-74
2021/12/19 14:29:46;;;;;;;8.82;1.77;;;;;;;11.87;62.64;101486.31;5049189;27;97814;-74
2021/12/19 14:32:14;;;;;;;7.78;1.65;;;;;;;11.63;62.92;101479.00;5045950;27;96867;-74
2021/12/19 14:34:44;;;;;;;5.93;1.15;;;;;;;11.66;62.65;101482.44;5044951;27;96847;-74
2021/12/19 14:37:31;;;;;;;10.43;1.65;;;;;;;11.53;63.24;101481.94;5048388;27;99112;-73
2021/12/19 14:40:01;;;;;;;6.10;1.70;;;;;;;11.43;63.10;101485.72;5048567;27;98043;-74
2021/12/19 14:42:32;;;;;;;9.32;1.80;;;;;;;11.90;62.01;101484.41;5044047;27;98742;-75
2021/12/19 14:45:05;;;;;;;12.38;2.67;;;;;;;11.56;62.46;101483.59;5041008;27;96970;-74
2021/12/19 14:47:43;;;;;;;7.80;2.33;;;;;;;11.72;63.75;101484.06;5042238;27;99374;-74